createdAt,value
2023-05-21T00:00:32.789Z,2.13
2023-05-21T00:03:37.570Z,1.88
2023-05-21T00:06:42.575Z,2.05
2023-05-21T00:09:47.387Z,1.88
2023-05-21T00:12:51.766Z,2.10
2023-05-21T00:15:56.178Z,2.28
2023-05-21T00:19:02.224Z,2.10
2023-05-21T00:22:07.164Z,2.08
2023-05-21T00:25:12.564Z,1.83
2023-05-21T00:28:17.374Z,1.90
2023-05-21T00:31:23.405Z,1.80
2023-05-21T00:34:29.631Z,1.85
2023-05-21T00:37:34.563Z,2.40
2023-05-21T00:40:41.274Z,2.20
2023-05-21T00:43:45.945Z,2.13
2023-05-21T00:46:53.852Z,1.98
2023-05-21T00:49:59.447Z,2.35
2023-05-21T00:53:04.838Z,2.20
2023-05-21T00:56:09.703Z,2.40
2023-05-21T00:59:17.070Z,2.20
2023-05-21T01:02:24.467Z,2.20
2023-05-21T01:05:30.471Z,2.38
2023-05-21T01:08:37.771Z,2.40
2023-05-21T01:11:47.635Z,2.33
2023-05-21T01:14:53.142Z,2.20
2023-05-21T01:17:58.174Z,2.80
2023-05-21T01:21:03.420Z,2.35
2023-05-21T01:24:07.723Z,2.60
2023-05-21T01:27:12.588Z,3.08
2023-05-21T01:30:29.998Z,3.13
2023-05-21T01:33:47.534Z,2.88
2023-05-21T01:37:02.337Z,2.20
2023-05-21T01:40:36.027Z,2.20
2023-05-21T01:43:44.078Z,2.78
2023-05-21T01:46:50.862Z,2.60
2023-05-21T01:49:56.316Z,2.40
2023-05-21T01:53:05.886Z,2.35
2023-05-21T01:56:11.520Z,2.45
2023-05-21T01:59:17.342Z,2.42
2023-05-21T02:02:22.066Z,2.83
2023-05-21T02:05:26.866Z,2.35
2023-05-21T02:08:31.329Z,2.78
2023-05-21T02:11:35.968Z,2.40
2023-05-21T02:14:40.556Z,2.35
2023-05-21T02:17:48.263Z,3.22
2023-05-21T02:20:52.772Z,2.78
2023-05-21T02:23:57.515Z,2.72
2023-05-21T02:27:02.948Z,3.13
2023-05-21T02:30:10.236Z,2.50
2023-05-21T02:33:16.543Z,3.42
2023-05-21T02:36:20.940Z,2.67
2023-05-21T02:39:26.961Z,3.10
2023-05-21T02:42:32.295Z,2.90
2023-05-21T02:45:36.911Z,2.65
2023-05-21T02:48:41.796Z,2.50
2023-05-21T02:51:46.364Z,2.72
2023-05-21T02:54:52.089Z,3.00
2023-05-21T02:57:56.826Z,3.28
2023-05-21T03:01:01.589Z,3.00
2023-05-21T03:04:06.177Z,2.72
2023-05-21T03:07:14.225Z,3.20
2023-05-21T03:10:18.988Z,3.15
2023-05-21T03:13:23.823Z,3.15
2023-05-21T03:16:28.861Z,3.10
2023-05-21T03:19:35.845Z,2.85
2023-05-21T03:22:46.390Z,2.85
2023-05-21T03:25:53.576Z,2.78
2023-05-21T03:28:59.753Z,3.60
2023-05-21T03:32:06.265Z,3.28
2023-05-21T03:35:11.657Z,3.65
2023-05-21T03:38:16.477Z,3.63
2023-05-21T03:41:21.328Z,3.38
2023-05-21T03:44:32.553Z,3.63
2023-05-21T03:47:56.202Z,3.10
2023-05-21T03:51:01.519Z,3.05
2023-05-21T03:54:06.292Z,3.17
2023-05-21T03:57:13.087Z,3.45
2023-05-21T04:00:18.832Z,3.67
2023-05-21T04:03:25.541Z,3.42
2023-05-21T04:06:30.832Z,3.45
2023-05-21T04:09:36.828Z,3.22
2023-05-21T04:12:41.566Z,3.60
2023-05-21T04:15:46.749Z,3.38
2023-05-21T04:18:52.291Z,4.20
2023-05-21T04:21:58.168Z,3.13
2023-05-21T04:25:03.196Z,3.80
2023-05-21T04:28:12.689Z,3.53
2023-05-21T04:31:17.287Z,3.45
2023-05-21T04:34:22.278Z,3.60
2023-05-21T04:37:28.307Z,3.20
2023-05-21T04:40:33.956Z,3.60
2023-05-21T04:43:44.031Z,3.53
2023-05-21T04:46:51.771Z,3.28
2023-05-21T04:49:56.831Z,3.47
2023-05-21T04:53:03.410Z,3.17
2023-05-21T04:56:09.794Z,3.50
2023-05-21T04:59:14.954Z,3.92
2023-05-21T05:02:19.580Z,4.25
2023-05-21T05:05:24.338Z,3.47
2023-05-21T05:08:28.958Z,4.03
2023-05-21T05:11:33.492Z,3.80
2023-05-21T05:14:38.024Z,3.17
2023-05-21T05:17:42.625Z,3.40
2023-05-21T05:20:47.744Z,3.75
2023-05-21T05:23:52.141Z,4.00
2023-05-21T05:27:00.007Z,3.42
2023-05-21T05:30:06.653Z,3.85
2023-05-21T05:33:12.010Z,3.67
2023-05-21T05:36:17.493Z,3.67
2023-05-21T05:39:22.382Z,4.43
2023-05-21T05:42:28.737Z,3.50
2023-05-21T05:45:34.742Z,3.80
2023-05-21T05:48:42.229Z,3.88
2023-05-21T05:51:47.239Z,3.45
2023-05-21T05:54:52.022Z,3.47
2023-05-21T05:57:56.941Z,3.50
2023-05-21T06:01:02.232Z,4.80
2023-05-21T06:04:07.367Z,4.07
2023-05-21T06:07:11.939Z,3.80
2023-05-21T06:10:16.228Z,4.35
2023-05-21T06:13:21.254Z,3.00
2023-05-21T06:16:26.584Z,3.45
2023-05-21T06:19:31.505Z,4.15
2023-05-21T06:22:37.324Z,3.88
2023-05-21T06:25:44.392Z,4.10
2023-05-21T06:28:50.188Z,4.25
2023-05-21T06:31:55.176Z,4.57
2023-05-21T06:35:00.201Z,4.47
2023-05-21T06:38:04.807Z,4.68
2023-05-21T06:41:09.321Z,4.55
2023-05-21T06:44:36.036Z,4.05
2023-05-21T06:47:49.010Z,3.80
2023-05-21T06:50:54.077Z,4.05
2023-05-21T06:53:58.732Z,4.68
2023-05-21T06:57:03.484Z,5.35
2023-05-21T07:00:10.154Z,4.40
2023-05-21T07:03:16.349Z,4.35
2023-05-21T07:06:21.093Z,4.10
2023-05-21T07:09:25.799Z,3.88
2023-05-21T07:12:30.529Z,3.63
2023-05-21T07:15:35.611Z,4.20
2023-05-21T07:18:41.003Z,5.43
2023-05-21T07:21:47.002Z,3.97
2023-05-21T07:24:51.658Z,4.32
2023-05-21T07:27:57.106Z,4.38
2023-05-21T07:31:01.909Z,4.18
2023-05-21T07:34:12.585Z,4.32
2023-05-21T07:37:19.508Z,3.83
2023-05-21T07:40:25.481Z,4.22
2023-05-21T07:43:31.809Z,4.10
2023-05-21T07:46:37.213Z,4.05
2023-05-21T07:49:41.999Z,4.07
2023-05-21T07:52:46.491Z,4.40
2023-05-21T07:55:51.466Z,3.83
2023-05-21T07:59:01.882Z,4.53
2023-05-21T08:02:08.005Z,4.90
2023-05-21T08:05:13.345Z,3.30
2023-05-21T08:08:19.297Z,4.50
2023-05-21T08:11:24.649Z,4.53
2023-05-21T08:14:29.419Z,3.90
2023-05-21T08:17:34.362Z,4.55
2023-05-21T08:20:39.544Z,4.25
2023-05-21T08:23:45.232Z,4.13
2023-05-21T08:26:50.654Z,4.10
2023-05-21T08:29:56.137Z,3.72
2023-05-21T08:33:01.209Z,4.53
2023-05-21T08:36:08.446Z,4.45
2023-05-21T08:39:22.478Z,3.58
2023-05-21T08:42:49.597Z,4.25
2023-05-21T08:46:10.932Z,4.70
2023-05-21T08:49:24.169Z,4.57
2023-05-21T08:52:34.288Z,5.28
2023-05-21T08:55:42.719Z,4.53
2023-05-21T08:58:48.914Z,4.20
2023-05-21T09:01:58.259Z,4.70
2023-05-21T09:05:10.055Z,5.35
2023-05-21T09:08:35.989Z,5.05
2023-05-21T09:11:46.438Z,4.50
2023-05-21T09:14:52.051Z,4.82
2023-05-21T09:17:59.437Z,4.53
2023-05-21T09:21:29.930Z,4.15
2023-05-21T09:24:42.019Z,5.20
2023-05-21T09:27:46.872Z,3.95
2023-05-21T09:30:54.746Z,4.00
2023-05-21T09:33:59.708Z,4.68
2023-05-21T09:37:13.511Z,4.00
2023-05-21T09:40:25.158Z,4.70
2023-05-21T09:43:31.390Z,5.35
2023-05-21T09:46:42.669Z,4.70
2023-05-21T09:49:47.313Z,4.75
2023-05-21T09:52:55.637Z,4.63
2023-05-21T09:56:00.599Z,7.03
2023-05-21T09:59:05.451Z,8.50
2023-05-21T10:02:24.579Z,8.27
2023-05-21T10:05:30.480Z,7.93
2023-05-21T10:08:37.461Z,7.20
2023-05-21T10:11:45.018Z,7.90
2023-05-21T10:14:57.214Z,8.80
2023-05-21T10:18:03.576Z,8.10
2023-05-21T10:21:09.209Z,8.18
2023-05-21T10:24:14.360Z,6.82
2023-05-21T10:27:21.283Z,7.90
2023-05-21T10:30:26.120Z,9.05
2023-05-21T10:33:31.814Z,7.93
2023-05-21T10:36:37.885Z,7.95
2023-05-21T10:39:45.873Z,9.45
2023-05-21T10:43:48.160Z,8.07
2023-05-21T10:47:43.568Z,8.48
2023-05-21T10:51:29.162Z,8.68
2023-05-21T10:55:02.650Z,8.82
2023-05-21T10:58:46.758Z,7.55
2023-05-21T11:01:53.222Z,8.00
2023-05-21T11:05:02.362Z,8.45
2023-05-21T11:08:22.740Z,8.90
2023-05-21T11:11:42.641Z,6.38
2023-05-21T11:15:07.576Z,8.98
2023-05-21T11:18:14.528Z,7.45
2023-05-21T11:21:22.680Z,8.57
2023-05-21T11:24:28.394Z,7.07
2023-05-21T11:27:41.428Z,9.10
2023-05-21T11:31:25.897Z,7.93
2023-05-21T11:34:47.856Z,8.25
2023-05-21T11:37:54.499Z,9.30
2023-05-21T11:41:03.901Z,8.15
2023-05-21T11:44:09.203Z,7.35
2023-05-21T11:47:21.259Z,7.53
2023-05-21T11:50:26.241Z,7.35
2023-05-21T11:53:30.816Z,7.97
2023-05-21T11:56:41.870Z,8.50
2023-05-21T11:59:48.496Z,8.50
2023-05-21T12:02:54.412Z,9.75
2023-05-21T12:06:06.198Z,7.88
2023-05-21T12:09:12.070Z,7.90
2023-05-21T12:12:22.437Z,9.27
2023-05-21T12:15:27.751Z,9.60
2023-05-21T12:18:32.349Z,9.20
2023-05-21T12:21:37.992Z,8.00
2023-05-21T12:24:46.507Z,9.90
2023-05-21T12:27:57.938Z,8.23
2023-05-21T12:31:02.859Z,9.82
2023-05-21T12:34:08.341Z,8.35
2023-05-21T12:37:35.509Z,9.73
2023-05-21T12:40:41.051Z,10.10
2023-05-21T12:43:46.893Z,9.32
2023-05-21T12:46:51.545Z,8.38
2023-05-21T12:50:01.685Z,8.15
2023-05-21T12:53:11.162Z,8.90
2023-05-21T12:56:16.553Z,8.90
2023-05-21T12:59:21.208Z,10.02
2023-05-21T13:02:47.671Z,8.20
2023-05-21T13:06:02.687Z,9.32
2023-05-21T13:09:07.774Z,8.93
2023-05-21T13:12:13.379Z,8.57
2023-05-21T13:15:17.781Z,7.80
2023-05-21T13:18:22.859Z,8.95
2023-05-21T13:21:27.560Z,9.75
2023-05-21T13:24:32.212Z,10.65
2023-05-21T13:27:37.757Z,8.50
2023-05-21T13:30:42.967Z,9.60
2023-05-21T13:33:47.836Z,9.15
2023-05-21T13:36:55.800Z,9.30
2023-05-21T13:40:01.017Z,8.40
2023-05-21T13:43:05.934Z,9.55
2023-05-21T13:46:10.941Z,9.93
2023-05-21T13:49:15.900Z,9.80
2023-05-21T13:52:21.750Z,10.10
2023-05-21T13:55:26.470Z,8.43
2023-05-21T13:58:34.647Z,8.25
2023-05-21T14:01:39.379Z,10.90
2023-05-21T14:04:43.767Z,8.70
2023-05-21T14:07:48.540Z,9.05
2023-05-21T14:10:53.552Z,7.40
2023-05-21T14:13:58.774Z,8.43
2023-05-21T14:17:03.724Z,8.20
2023-05-21T14:20:09.537Z,8.68
2023-05-21T14:23:14.089Z,8.63
2023-05-21T14:26:19.097Z,9.05
2023-05-21T14:29:24.089Z,9.07
2023-05-21T14:32:29.134Z,9.95
2023-05-21T14:35:33.812Z,9.30
2023-05-21T14:38:38.479Z,7.82
2023-05-21T14:41:42.793Z,9.25
2023-05-21T14:44:47.926Z,8.93
2023-05-21T14:47:52.551Z,8.88
2023-05-21T14:50:57.285Z,9.73
2023-05-21T14:54:01.874Z,9.18
2023-05-21T14:57:06.448Z,9.07
2023-05-21T15:00:12.698Z,9.05
2023-05-21T15:03:17.277Z,7.78
2023-05-21T15:06:22.404Z,7.63
2023-05-21T15:09:26.955Z,7.97
2023-05-21T15:12:31.657Z,8.30
2023-05-21T15:15:36.458Z,7.80
2023-05-21T15:18:41.001Z,8.85
2023-05-21T15:21:45.428Z,9.35
2023-05-21T15:24:50.035Z,8.23
2023-05-21T15:27:55.428Z,9.77
2023-05-21T15:31:00.042Z,9.10
2023-05-21T15:34:04.502Z,9.18
2023-05-21T15:37:09.049Z,9.50
2023-05-21T15:40:14.061Z,8.80
2023-05-21T15:43:18.616Z,10.85
2023-05-21T15:46:23.671Z,9.15
2023-05-21T15:49:28.203Z,8.90
2023-05-21T15:52:32.848Z,9.63
2023-05-21T15:55:38.040Z,9.80
2023-05-21T15:58:43.093Z,8.02
2023-05-21T16:01:48.085Z,9.90
2023-05-21T16:04:53.126Z,9.80
2023-05-21T16:07:57.554Z,9.02
2023-05-21T16:11:01.836Z,8.40
2023-05-21T16:14:06.497Z,8.70
2023-05-21T16:17:11.587Z,8.63
2023-05-21T16:20:18.761Z,8.70
2023-05-21T16:23:24.464Z,9.05
2023-05-21T16:26:29.471Z,8.60
2023-05-21T16:29:34.310Z,9.20
2023-05-21T16:32:39.897Z,9.27
2023-05-21T16:35:45.615Z,8.80
2023-05-21T16:38:50.411Z,7.18
2023-05-21T16:41:59.611Z,8.20
2023-05-21T16:45:05.040Z,8.27
2023-05-21T16:48:10.930Z,8.68
2023-05-21T16:51:15.408Z,10.27
2023-05-21T16:54:20.111Z,8.60
2023-05-21T16:57:24.447Z,8.68
2023-05-21T17:00:29.552Z,8.80
2023-05-21T17:03:34.188Z,7.65
2023-05-21T17:06:38.687Z,8.57
2023-05-21T17:09:43.313Z,8.52
2023-05-21T17:12:48.132Z,9.32
2023-05-21T17:15:52.865Z,9.10
2023-05-21T17:18:57.407Z,8.43
2023-05-21T17:22:02.234Z,8.95
2023-05-21T17:25:08.071Z,9.30
2023-05-21T17:28:12.567Z,9.07
2023-05-21T17:31:17.655Z,8.82
2023-05-21T17:34:24.740Z,11.82
2023-05-21T17:37:29.621Z,9.45
2023-05-21T17:40:34.284Z,9.18
2023-05-21T17:43:39.269Z,8.75
2023-05-21T17:46:45.642Z,8.20
2023-05-21T17:49:50.110Z,8.75
2023-05-21T17:52:54.742Z,8.98
2023-05-21T17:55:59.362Z,8.73
2023-05-21T17:59:06.121Z,8.77
2023-05-21T18:02:10.853Z,7.80
2023-05-21T18:05:15.324Z,9.43
2023-05-21T18:08:20.129Z,8.45
2023-05-21T18:11:28.047Z,8.52
2023-05-21T18:14:33.935Z,9.70
2023-05-21T18:17:38.476Z,8.48
2023-05-21T18:20:44.781Z,10.55
2023-05-21T18:23:49.287Z,9.30
2023-05-21T18:26:54.267Z,12.35
2023-05-21T18:30:02.380Z,12.48
2023-05-21T18:33:08.413Z,20.40
2023-05-21T18:36:13.398Z,17.25
2023-05-21T18:39:18.471Z,17.13
2023-05-21T18:42:23.027Z,15.05
2023-05-21T18:45:28.174Z,19.65
2023-05-21T18:48:33.077Z,16.85
2023-05-21T18:51:41.103Z,12.80
2023-05-21T18:54:45.953Z,14.45
2023-05-21T18:57:50.865Z,12.90
2023-05-21T19:00:55.782Z,10.40
2023-05-21T19:04:00.173Z,9.75
2023-05-21T19:07:05.116Z,9.05
2023-05-21T19:10:12.826Z,8.65
2023-05-21T19:13:17.308Z,8.18
2023-05-21T19:16:21.921Z,8.15
2023-05-21T19:19:27.030Z,7.53
2023-05-21T19:22:31.934Z,8.27
2023-05-21T19:25:36.665Z,8.07
2023-05-21T19:28:41.274Z,7.72
2023-05-21T19:31:45.825Z,7.88
2023-05-21T19:34:52.190Z,7.80
2023-05-21T19:38:00.624Z,7.20
2023-05-21T19:41:06.801Z,7.50
2023-05-21T19:44:11.937Z,8.15
2023-05-21T19:47:16.913Z,7.55
2023-05-21T19:50:22.180Z,7.03
2023-05-21T19:53:26.605Z,7.95
2023-05-21T19:56:31.012Z,8.05
2023-05-21T19:59:35.789Z,7.88
2023-05-21T20:02:41.139Z,8.40
2023-05-21T20:05:46.075Z,8.10
2023-05-21T20:08:51.845Z,8.27
2023-05-21T20:11:56.643Z,8.45
2023-05-21T20:15:01.321Z,8.27
2023-05-21T20:18:06.824Z,8.65
2023-05-21T20:21:11.647Z,8.27
2023-05-21T20:24:16.205Z,8.40
2023-05-21T20:27:20.487Z,7.57
2023-05-21T20:30:51.512Z,8.02
2023-05-21T20:33:56.334Z,8.75
2023-05-21T20:37:02.322Z,8.20
2023-05-21T20:40:07.982Z,8.15
2023-05-21T20:43:13.768Z,8.20
2023-05-21T20:46:19.936Z,8.73
2023-05-21T20:49:24.933Z,9.00
2023-05-21T20:52:29.246Z,9.27
2023-05-21T20:55:34.908Z,8.25
2023-05-21T20:58:39.952Z,8.55
2023-05-21T21:01:45.027Z,8.13
2023-05-21T21:04:50.630Z,9.40
2023-05-21T21:07:56.019Z,9.35
2023-05-21T21:11:00.899Z,9.45
2023-05-21T21:14:05.351Z,9.32
2023-05-21T21:17:10.229Z,8.75
2023-05-21T21:20:17.407Z,8.57
2023-05-21T21:23:25.007Z,9.20
2023-05-21T21:26:29.242Z,9.13
2023-05-21T21:29:33.645Z,9.95
2023-05-21T21:32:38.156Z,9.60
2023-05-21T21:35:42.810Z,9.88
2023-05-21T21:38:47.685Z,9.63
2023-05-21T21:41:52.831Z,9.05
2023-05-21T21:44:57.907Z,8.82
2023-05-21T21:48:02.671Z,9.52
2023-05-21T21:51:08.209Z,9.05
2023-05-21T21:54:12.876Z,8.77
2023-05-21T21:57:17.708Z,9.15
2023-05-21T22:00:26.659Z,9.27
2023-05-21T22:03:34.497Z,9.10
2023-05-21T22:06:39.834Z,8.55
2023-05-21T22:09:45.862Z,9.65
2023-05-21T22:12:50.694Z,10.73
2023-05-21T22:15:55.419Z,9.48
2023-05-21T22:19:01.492Z,10.50
2023-05-21T22:22:05.996Z,12.10
2023-05-21T22:25:10.541Z,13.07
2023-05-21T22:28:15.541Z,12.02
2023-05-21T22:31:20.912Z,10.70
2023-05-21T22:34:25.844Z,11.60
2023-05-21T22:37:30.170Z,11.30
2023-05-21T22:40:34.556Z,10.68
2023-05-21T22:43:39.089Z,10.65
2023-05-21T22:46:44.061Z,9.80
2023-05-21T22:49:48.570Z,9.30
2023-05-21T22:52:52.918Z,9.40
2023-05-21T22:55:57.325Z,9.32
2023-05-21T22:59:01.827Z,9.63
2023-05-21T23:02:07.226Z,9.82
2023-05-21T23:05:12.198Z,10.85
2023-05-21T23:08:16.934Z,10.13
2023-05-21T23:11:22.496Z,10.48
2023-05-21T23:14:26.979Z,10.02
2023-05-21T23:17:32.029Z,10.93
2023-05-21T23:20:37.444Z,10.63
2023-05-21T23:23:42.229Z,9.85
2023-05-21T23:26:47.287Z,9.38
2023-05-21T23:29:51.789Z,10.15
2023-05-21T23:32:56.572Z,11.23
2023-05-21T23:36:01.314Z,12.20
2023-05-21T23:39:06.678Z,12.85
2023-05-21T23:42:11.505Z,12.20
2023-05-21T23:45:17.857Z,11.73
2023-05-21T23:48:22.537Z,11.93
2023-05-21T23:51:27.003Z,11.65
2023-05-21T23:54:31.780Z,12.05
2023-05-21T23:57:36.343Z,12.45
